createdAt,value
2022-08-12T00:00:18.509Z,0.25
2022-08-12T00:03:03.831Z,0.50
2022-08-12T00:06:03.917Z,0.40
2022-08-12T00:08:51.615Z,0.63
2022-08-12T00:14:22.752Z,0.30
2022-08-12T00:17:08.095Z,0.50
2022-08-12T00:19:54.049Z,0.30
2022-08-12T00:22:39.632Z,0.38
2022-08-12T00:26:02.786Z,0.22
2022-08-12T00:28:31.722Z,0.82
2022-08-12T00:31:17.370Z,0.45
2022-08-12T00:34:02.888Z,1.08
2022-08-12T00:36:50.707Z,0.40
2022-08-12T00:39:36.787Z,0.30
2022-08-12T00:42:12.993Z,0.60
2022-08-12T00:44:44.514Z,0.30
2022-08-12T00:47:24.413Z,0.52
2022-08-12T00:49:53.999Z,0.35
2022-08-12T00:52:21.113Z,0.25
2022-08-12T00:54:49.107Z,0.60
2022-08-12T00:57:17.382Z,0.30
2022-08-12T01:00:00.178Z,0.40
2022-08-12T01:02:28.982Z,0.20
2022-08-12T01:05:19.830Z,0.50
2022-08-12T01:08:06.618Z,0.40
2022-08-12T01:10:54.222Z,0.47
2022-08-12T01:13:22.194Z,0.20
2022-08-12T01:15:54.646Z,0.28
2022-08-12T01:18:23.478Z,0.68
2022-08-12T01:20:56.755Z,0.60
2022-08-12T01:23:50.072Z,0.30
2022-08-12T01:26:23.321Z,0.20
2022-08-12T01:29:00.113Z,0.40
2022-08-12T01:31:29.280Z,0.40
2022-08-12T01:34:03.625Z,0.35
2022-08-12T01:36:41.914Z,0.52
2022-08-12T01:39:09.580Z,0.30
2022-08-12T01:41:40.674Z,0.55
2022-08-12T01:44:07.746Z,0.68
2022-08-12T01:46:43.056Z,0.50
2022-08-12T01:49:34.071Z,0.30
2022-08-12T01:52:21.473Z,0.85
2022-08-12T01:54:49.566Z,0.30
2022-08-12T01:57:58.462Z,0.47
2022-08-12T02:00:55.001Z,0.22
2022-08-12T02:03:27.789Z,0.20
2022-08-12T02:06:36.215Z,0.40
2022-08-12T02:09:23.449Z,0.52
2022-08-12T02:12:08.597Z,0.32
2022-08-12T02:14:56.791Z,0.30
2022-08-12T02:18:03.072Z,0.50
2022-08-12T02:20:35.173Z,0.40
2022-08-12T02:23:19.393Z,0.40
2022-08-12T02:25:46.820Z,0.50
2022-08-12T02:28:13.852Z,0.32
2022-08-12T02:30:41.963Z,0.40
2022-08-12T02:33:09.639Z,0.40
2022-08-12T02:35:36.900Z,0.50
2022-08-12T02:38:06.572Z,0.40
2022-08-12T02:40:37.008Z,0.73
2022-08-12T02:43:17.329Z,0.20
2022-08-12T02:45:57.215Z,0.40
2022-08-12T02:48:46.362Z,0.40
2022-08-12T02:51:17.469Z,0.40
2022-08-12T02:53:45.147Z,0.40
2022-08-12T02:56:30.949Z,0.30
2022-08-12T02:59:00.734Z,1.05
2022-08-12T03:01:34.037Z,0.22
2022-08-12T03:04:03.589Z,0.25
2022-08-12T03:06:46.285Z,0.40
2022-08-12T03:09:14.619Z,0.50
2022-08-12T03:11:57.003Z,0.20
2022-08-12T03:14:27.493Z,0.40
2022-08-12T03:17:18.195Z,0.30
2022-08-12T03:20:10.274Z,0.60
2022-08-12T03:22:32.610Z,0.30
2022-08-12T03:25:04.801Z,0.70
2022-08-12T03:27:34.456Z,0.17
2022-08-12T03:30:01.573Z,0.55
2022-08-12T03:32:35.929Z,0.38
2022-08-12T03:35:07.347Z,0.30
2022-08-12T03:37:34.711Z,0.38
2022-08-12T03:40:01.787Z,0.40
2022-08-12T03:42:40.884Z,0.70
2022-08-12T03:45:51.446Z,0.68
2022-08-12T03:48:38.162Z,0.50
2022-08-12T03:51:23.992Z,0.60
2022-08-12T03:54:11.277Z,0.80
2022-08-12T03:56:57.608Z,0.70
2022-08-12T03:59:43.160Z,1.08
2022-08-12T04:02:16.599Z,0.88
2022-08-12T04:04:45.459Z,0.55
2022-08-12T04:07:13.383Z,0.60
2022-08-12T04:09:41.907Z,0.52
2022-08-12T04:12:39.490Z,1.85
2022-08-12T04:15:07.087Z,1.90
2022-08-12T04:17:34.241Z,1.90
2022-08-12T04:20:01.371Z,1.48
2022-08-12T04:22:30.496Z,1.50
2022-08-12T04:25:01.210Z,1.90
2022-08-12T04:27:31.656Z,2.30
2022-08-12T04:30:30.842Z,1.30
2022-08-12T04:32:48.747Z,1.52
2022-08-12T04:35:16.671Z,1.60
2022-08-12T04:37:59.454Z,1.38
2022-08-12T04:40:30.270Z,1.30
2022-08-12T04:42:57.730Z,0.68
2022-08-12T04:45:25.070Z,1.08
2022-08-12T04:47:52.127Z,0.40
2022-08-12T04:50:33.889Z,0.73
2022-08-12T04:53:03.559Z,0.60
2022-08-12T04:55:30.704Z,0.50
2022-08-12T04:57:57.678Z,0.68
2022-08-12T05:00:24.746Z,0.57
2022-08-12T05:02:52.356Z,0.73
2022-08-12T05:05:20.748Z,0.80
2022-08-12T05:07:54.312Z,0.60
2022-08-12T05:10:33.522Z,0.50
2022-08-12T05:13:29.787Z,0.40
2022-08-12T05:16:04.970Z,0.50
2022-08-12T05:18:39.111Z,0.50
2022-08-12T05:21:07.795Z,1.15
2022-08-12T05:23:36.896Z,0.32
2022-08-12T05:26:06.133Z,0.60
2022-08-12T05:28:33.404Z,0.50
2022-08-12T05:31:01.784Z,0.73
2022-08-12T05:33:38.352Z,0.65
2022-08-12T05:36:07.679Z,0.70
2022-08-12T05:38:53.655Z,1.23
2022-08-12T05:41:20.838Z,0.65
2022-08-12T05:44:04.686Z,0.55
2022-08-12T05:46:32.229Z,0.40
2022-08-12T05:49:00.748Z,0.40
2022-08-12T05:51:41.272Z,0.55
2022-08-12T05:54:09.318Z,0.55
2022-08-12T05:56:36.448Z,0.40
2022-08-12T05:59:07.361Z,0.50
2022-08-12T06:02:09.790Z,0.60
2022-08-12T06:04:21.664Z,0.52
2022-08-12T06:06:53.189Z,0.68
2022-08-12T06:09:22.657Z,0.45
2022-08-12T06:12:04.793Z,0.40
2022-08-12T06:14:36.260Z,0.40
2022-08-12T06:17:04.269Z,0.60
2022-08-12T06:20:28.816Z,0.55
2022-08-12T06:22:18.758Z,0.40
2022-08-12T06:24:45.767Z,1.05
2022-08-12T06:27:17.704Z,1.15
2022-08-12T06:30:08.362Z,0.60
2022-08-12T06:32:31.879Z,0.75
2022-08-12T06:35:26.966Z,0.80
2022-08-12T06:37:51.484Z,0.40
2022-08-12T06:40:42.162Z,0.70
2022-08-12T06:43:09.258Z,0.57
2022-08-12T06:45:46.723Z,0.70
2022-08-12T06:48:14.306Z,0.65
2022-08-12T06:50:42.507Z,0.75
2022-08-12T06:53:11.282Z,0.55
2022-08-12T06:55:56.706Z,0.80
2022-08-12T06:58:29.213Z,0.57
2022-08-12T07:00:57.935Z,1.00
2022-08-12T07:03:28.734Z,0.63
2022-08-12T07:06:00.443Z,1.00
2022-08-12T07:08:31.922Z,0.70
2022-08-12T07:11:01.589Z,0.65
2022-08-12T07:13:32.106Z,0.60
2022-08-12T07:16:53.445Z,0.50
2022-08-12T07:19:20.910Z,0.70
2022-08-12T07:21:59.927Z,0.63
2022-08-12T07:24:30.503Z,0.50
2022-08-12T07:26:57.559Z,0.57
2022-08-12T07:29:26.095Z,0.93
2022-08-12T07:32:13.104Z,1.13
2022-08-12T07:34:43.330Z,0.63
2022-08-12T07:37:10.576Z,0.70
2022-08-12T07:39:37.650Z,0.25
2022-08-12T07:42:18.876Z,0.30
2022-08-12T07:44:47.202Z,0.60
2022-08-12T07:47:18.822Z,0.40
2022-08-12T07:50:05.874Z,0.22
2022-08-12T07:52:37.180Z,0.20
2022-08-12T07:55:08.826Z,0.70
2022-08-12T07:57:36.136Z,0.70
2022-08-12T08:00:06.279Z,1.05
2022-08-12T08:02:37.657Z,0.30
2022-08-12T08:05:05.745Z,0.57
2022-08-12T08:07:32.781Z,0.43
2022-08-12T08:10:30.909Z,0.40
2022-08-12T08:13:04.329Z,0.50
2022-08-12T08:16:01.249Z,0.88
2022-08-12T08:18:26.776Z,0.65
2022-08-12T08:20:55.104Z,0.80
2022-08-12T08:23:46.124Z,1.15
2022-08-12T08:26:15.530Z,1.17
2022-08-12T08:28:43.304Z,1.00
2022-08-12T08:31:13.933Z,1.55
2022-08-12T08:34:01.479Z,1.58
2022-08-12T08:36:28.923Z,1.67
2022-08-12T08:38:58.347Z,1.40
2022-08-12T08:42:15.897Z,1.00
2022-08-12T08:44:33.311Z,1.15
2022-08-12T08:47:05.581Z,0.60
2022-08-12T08:49:32.796Z,0.77
2022-08-12T08:52:04.930Z,0.50
2022-08-12T08:54:33.517Z,0.30
2022-08-12T08:57:05.014Z,0.40
2022-08-12T08:59:32.356Z,0.17
2022-08-12T09:01:59.550Z,0.40
2022-08-12T09:07:43.909Z,0.22
2022-08-12T09:10:05.376Z,0.35
2022-08-12T09:12:55.766Z,0.20
2022-08-12T09:15:35.464Z,0.20
2022-08-12T09:18:09.096Z,1.33
2022-08-12T09:20:36.719Z,0.20
2022-08-12T09:23:16.665Z,0.30
2022-08-12T09:25:52.735Z,0.28
2022-08-12T09:28:22.129Z,0.17
2022-08-12T09:31:00.122Z,0.20
2022-08-12T09:34:28.446Z,0.28
2022-08-12T09:36:30.617Z,0.10
2022-08-12T09:39:01.145Z,0.10
2022-08-12T09:42:09.782Z,0.30
2022-08-12T09:44:38.632Z,0.40
2022-08-12T09:47:10.471Z,0.40
2022-08-12T09:49:42.245Z,0.20
2022-08-12T09:52:13.920Z,0.20
2022-08-12T09:54:42.970Z,0.45
2022-08-12T09:58:44.954Z,0.25
2022-08-12T10:00:13.313Z,0.20
2022-08-12T10:03:32.709Z,0.10
2022-08-12T10:06:20.422Z,0.57
2022-08-12T10:08:52.303Z,0.13
2022-08-12T10:12:10.525Z,0.40
2022-08-12T10:17:01.575Z,0.73
2022-08-12T10:19:36.069Z,0.20
2022-08-12T10:22:16.476Z,0.30
2022-08-12T10:25:17.616Z,0.00
2022-08-12T10:28:08.403Z,0.10
2022-08-12T10:30:46.778Z,0.25
2022-08-12T10:33:31.667Z,0.20
2022-08-12T10:36:01.886Z,0.10
2022-08-12T10:38:36.135Z,0.15
2022-08-12T10:41:58.714Z,0.10
2022-08-12T10:44:17.448Z,0.20
2022-08-12T10:46:49.407Z,0.10
2022-08-12T10:50:05.862Z,0.00
2022-08-12T10:52:34.597Z,0.10
2022-08-12T10:54:53.007Z,0.13
2022-08-12T10:58:13.390Z,0.10
2022-08-12T11:00:35.452Z,0.10
2022-08-12T11:04:24.858Z,0.10
2022-08-12T11:07:05.357Z,0.60
2022-08-12T11:08:42.298Z,0.13
2022-08-12T11:11:13.719Z,0.10
2022-08-12T11:13:46.936Z,0.22
2022-08-12T11:16:21.921Z,0.10
2022-08-12T11:18:55.013Z,0.10
2022-08-12T11:21:31.067Z,0.10
2022-08-12T11:24:30.083Z,0.10
2022-08-12T11:30:01.508Z,0.10
2022-08-12T11:32:17.172Z,0.17
2022-08-12T11:34:52.547Z,0.10
2022-08-12T11:37:24.850Z,0.10
2022-08-12T11:42:35.905Z,0.10
2022-08-12T11:45:10.563Z,0.10
2022-08-12T11:47:40.434Z,0.20
2022-08-12T11:50:11.710Z,0.10
2022-08-12T11:52:56.487Z,0.00
2022-08-12T11:56:21.948Z,0.10
2022-08-12T12:02:02.186Z,0.10
2022-08-12T12:04:32.006Z,0.10
2022-08-12T12:07:06.758Z,0.08
2022-08-12T12:09:52.313Z,0.40
2022-08-12T12:12:22.678Z,0.10
2022-08-12T12:14:55.035Z,0.10
2022-08-12T12:17:34.331Z,0.03
2022-08-12T12:20:09.240Z,0.05
2022-08-12T12:22:37.448Z,0.00
2022-08-12T12:25:12.585Z,0.30
2022-08-12T12:28:04.590Z,0.10
2022-08-12T12:30:33.716Z,0.00
2022-08-12T12:33:01.065Z,0.05
2022-08-12T12:36:06.641Z,0.10
2022-08-12T12:38:40.689Z,0.00
2022-08-12T12:41:16.430Z,0.05
2022-08-12T12:43:56.506Z,0.10
2022-08-12T12:46:31.287Z,0.10
2022-08-12T12:48:58.398Z,0.10
2022-08-12T12:51:56.393Z,0.10
2022-08-12T12:54:14.003Z,0.13
2022-08-12T12:56:49.983Z,0.00
2022-08-12T12:59:54.935Z,0.03
2022-08-12T13:02:08.933Z,0.10
2022-08-12T13:04:37.477Z,0.00
2022-08-12T13:07:05.806Z,0.10
2022-08-12T13:09:36.072Z,0.00
2022-08-12T13:12:06.552Z,0.10
2022-08-12T13:15:03.557Z,0.10
2022-08-12T13:18:00.744Z,0.10
2022-08-12T13:20:37.935Z,0.10
2022-08-12T13:23:37.154Z,0.00
2022-08-12T13:25:57.231Z,0.10
2022-08-12T13:28:28.650Z,0.00
2022-08-12T13:30:59.455Z,0.10
2022-08-12T13:33:28.655Z,0.20
2022-08-12T13:36:07.141Z,0.30
2022-08-12T13:38:42.278Z,0.30
2022-08-12T13:41:31.861Z,0.10
2022-08-12T13:44:04.513Z,0.10
2022-08-12T13:46:32.151Z,0.28
2022-08-12T13:48:59.158Z,0.20
2022-08-12T13:51:26.556Z,0.17
2022-08-12T13:54:13.841Z,0.47
2022-08-12T13:56:41.440Z,0.10
2022-08-12T14:01:45.338Z,0.00
2022-08-12T14:04:12.857Z,0.10
2022-08-12T14:06:40.871Z,0.10
2022-08-12T14:09:17.422Z,0.10
2022-08-12T14:11:58.509Z,0.10
2022-08-12T14:14:31.518Z,0.15
2022-08-12T14:17:09.776Z,0.30
2022-08-12T14:19:48.594Z,0.10
2022-08-12T14:22:20.810Z,0.10
2022-08-12T14:24:53.344Z,0.20
2022-08-12T14:28:02.668Z,0.10
2022-08-12T14:30:15.736Z,0.10
2022-08-12T14:32:51.306Z,0.10
2022-08-12T14:35:20.243Z,0.10
2022-08-12T14:37:57.511Z,0.10
2022-08-12T14:40:29.780Z,0.10
2022-08-12T14:42:57.956Z,0.00
2022-08-12T14:45:45.255Z,0.10
2022-08-12T14:48:13.329Z,0.20
2022-08-12T14:51:09.520Z,0.00
2022-08-12T14:59:57.545Z,0.08
2022-08-12T15:02:19.622Z,0.10
2022-08-12T15:04:56.119Z,0.10
2022-08-12T15:07:33.338Z,0.20
2022-08-12T15:10:10.813Z,0.28
2022-08-12T15:12:40.560Z,0.10
2022-08-12T15:15:09.101Z,0.30
2022-08-12T15:17:38.747Z,0.10
2022-08-12T15:20:30.805Z,0.35
2022-08-12T15:22:57.908Z,0.10
2022-08-12T15:25:27.944Z,0.20
2022-08-12T15:28:03.988Z,0.10
2022-08-12T15:30:34.313Z,0.65
2022-08-12T15:33:12.197Z,0.10
2022-08-12T15:35:50.347Z,0.10
2022-08-12T15:38:21.243Z,0.43
2022-08-12T15:40:49.595Z,0.20
2022-08-12T15:43:50.933Z,0.10
2022-08-12T15:46:04.777Z,0.40
2022-08-12T15:48:32.740Z,0.10
2022-08-12T15:51:00.555Z,0.25
2022-08-12T15:53:46.433Z,0.20
2022-08-12T15:56:22.190Z,0.10
2022-08-12T15:58:58.859Z,0.10
2022-08-12T16:01:28.723Z,0.43
2022-08-12T16:04:03.194Z,0.10
2022-08-12T16:09:55.735Z,0.20
2022-08-12T16:12:12.343Z,0.10
2022-08-12T16:14:41.846Z,0.10
2022-08-12T16:17:14.825Z,0.10
2022-08-12T16:20:03.339Z,0.10
2022-08-12T16:22:30.152Z,0.10
2022-08-12T16:24:57.204Z,0.10
2022-08-12T16:27:25.596Z,0.85
2022-08-12T16:29:57.461Z,0.10
2022-08-12T16:32:31.941Z,0.10
2022-08-12T16:35:01.435Z,0.10
2022-08-12T16:38:25.474Z,0.10
2022-08-12T16:40:50.232Z,0.10
2022-08-12T16:43:25.195Z,0.10
2022-08-12T16:46:23.285Z,0.10
2022-08-12T16:48:44.453Z,0.20
2022-08-12T16:51:13.752Z,0.17
2022-08-12T16:53:44.589Z,0.10
2022-08-12T16:56:15.356Z,0.10
2022-08-12T16:58:43.506Z,0.13
2022-08-12T17:01:16.384Z,0.20
2022-08-12T17:03:52.209Z,0.10
2022-08-12T17:06:22.590Z,0.05
2022-08-12T17:09:02.774Z,0.10
2022-08-12T17:11:31.126Z,0.10
2022-08-12T17:14:00.178Z,0.10
2022-08-12T17:16:30.139Z,0.10
2022-08-12T17:20:29.811Z,0.10
2022-08-12T17:22:16.327Z,0.43
2022-08-12T17:24:50.593Z,0.30
2022-08-12T17:27:24.161Z,0.52
2022-08-12T17:30:01.994Z,0.95
2022-08-12T17:32:31.404Z,0.52
2022-08-12T17:35:16.722Z,0.40
2022-08-12T17:37:44.781Z,0.30
2022-08-12T17:40:20.814Z,0.40
2022-08-12T17:43:01.298Z,0.30
2022-08-12T17:45:29.523Z,0.20
2022-08-12T17:48:05.736Z,0.20
2022-08-12T17:53:02.931Z,0.20
2022-08-12T17:55:44.820Z,0.15
2022-08-12T17:58:37.821Z,0.20
2022-08-12T18:01:06.081Z,0.10
2022-08-12T18:04:05.537Z,0.10
2022-08-12T18:06:28.085Z,0.10
2022-08-12T18:08:56.791Z,0.10
2022-08-12T18:12:06.710Z,0.10
2022-08-12T18:14:33.124Z,0.20
2022-08-12T18:17:08.178Z,0.10
2022-08-12T18:20:05.723Z,0.10
2022-08-12T18:22:30.741Z,0.30
2022-08-12T18:25:04.803Z,0.30
2022-08-12T18:27:44.685Z,0.10
2022-08-12T18:30:20.912Z,0.10
2022-08-12T18:33:04.595Z,0.20
2022-08-12T18:38:22.053Z,0.10
2022-08-12T18:41:09.735Z,0.10
2022-08-12T18:43:39.018Z,0.10
2022-08-12T18:46:53.678Z,0.20
2022-08-12T18:49:31.627Z,0.10
2022-08-12T18:52:04.308Z,0.10
2022-08-12T18:54:34.869Z,0.10
2022-08-12T18:57:07.016Z,0.10
2022-08-12T19:00:00.815Z,0.17
2022-08-12T19:02:32.997Z,0.10
2022-08-12T19:05:09.314Z,0.10
2022-08-12T19:08:00.888Z,0.30
2022-08-12T19:10:30.511Z,0.10
2022-08-12T19:13:21.231Z,0.10
2022-08-12T19:15:58.145Z,0.15
2022-08-12T19:18:29.376Z,0.10
2022-08-12T19:20:58.619Z,0.10
2022-08-12T19:23:35.116Z,0.10
2022-08-12T19:26:03.748Z,0.10
2022-08-12T19:28:38.610Z,0.20
2022-08-12T19:31:58.192Z,0.08
2022-08-12T19:38:04.306Z,0.30
2022-08-12T19:40:31.139Z,0.10
2022-08-12T19:43:13.343Z,0.30
2022-08-12T19:45:49.758Z,0.13
2022-08-12T19:48:18.946Z,0.43
2022-08-12T19:50:49.940Z,0.10
2022-08-12T19:53:18.598Z,0.77
2022-08-12T19:55:50.807Z,0.20
2022-08-12T19:58:50.502Z,0.10
2022-08-12T20:01:18.766Z,0.35
2022-08-12T20:03:48.027Z,0.43
2022-08-12T20:06:27.707Z,0.15
2022-08-12T20:08:57.421Z,0.30
2022-08-12T20:12:11.510Z,0.20
2022-08-12T20:14:17.893Z,0.20
2022-08-12T20:19:53.295Z,0.40
2022-08-12T20:22:14.591Z,0.17
2022-08-12T20:24:42.153Z,0.20
2022-08-12T20:27:53.955Z,0.10
2022-08-12T20:29:59.485Z,0.30
2022-08-12T20:32:29.781Z,0.10
2022-08-12T20:35:10.154Z,0.10
2022-08-12T20:38:04.912Z,0.40
2022-08-12T20:40:26.548Z,0.20
2022-08-12T20:42:55.651Z,0.22
2022-08-12T20:45:22.622Z,0.20
2022-08-12T20:48:02.033Z,0.10
2022-08-12T20:50:31.625Z,0.40
2022-08-12T20:53:01.736Z,0.22
2022-08-12T20:55:42.406Z,0.30
2022-08-12T20:58:10.439Z,0.17
2022-08-12T21:00:37.501Z,0.22
2022-08-12T21:03:24.154Z,0.20
2022-08-12T21:06:13.560Z,0.20
2022-08-12T21:08:42.764Z,0.38
2022-08-12T21:11:10.375Z,0.28
2022-08-12T21:13:38.869Z,0.28
2022-08-12T21:16:09.954Z,0.20
2022-08-12T21:18:38.161Z,0.20
2022-08-12T21:21:06.519Z,0.20
2022-08-12T21:23:36.977Z,0.32
2022-08-12T21:26:12.371Z,0.57
2022-08-12T21:28:58.342Z,0.15
2022-08-12T21:32:40.363Z,0.10
2022-08-12T21:34:19.343Z,0.20
2022-08-12T21:36:49.481Z,0.20
2022-08-12T21:39:32.625Z,0.22
2022-08-12T21:42:06.515Z,0.40
2022-08-12T21:45:47.256Z,0.30
2022-08-12T21:47:25.087Z,0.20
2022-08-12T21:50:02.935Z,0.40
2022-08-12T21:52:36.017Z,0.52
2022-08-12T21:55:07.989Z,0.15
2022-08-12T21:57:50.931Z,0.13
2022-08-12T22:00:31.943Z,0.22
2022-08-12T22:03:25.188Z,0.63
2022-08-12T22:06:30.566Z,0.60
2022-08-12T22:09:16.595Z,0.55
2022-08-12T22:11:56.578Z,0.40
2022-08-12T22:14:29.805Z,0.45
2022-08-12T22:17:00.610Z,0.20
2022-08-12T22:19:27.947Z,0.25
2022-08-12T22:21:58.689Z,0.47
2022-08-12T22:24:30.363Z,0.52
2022-08-12T22:27:23.031Z,0.30
2022-08-12T22:30:16.707Z,0.98
2022-08-12T22:32:54.767Z,0.32
2022-08-12T22:35:56.663Z,0.50
2022-08-12T22:38:26.564Z,0.20
2022-08-12T22:41:01.844Z,0.20
2022-08-12T22:43:58.810Z,0.52
2022-08-12T22:46:52.664Z,0.60
2022-08-12T22:49:22.327Z,0.47
2022-08-12T22:52:03.055Z,0.80
2022-08-12T22:54:36.789Z,0.65
2022-08-12T22:57:05.282Z,0.68
2022-08-12T22:59:55.886Z,0.50
2022-08-12T23:02:28.716Z,0.70
2022-08-12T23:04:57.724Z,0.50
2022-08-12T23:07:24.732Z,0.38
2022-08-12T23:09:51.811Z,0.60
2022-08-12T23:12:46.478Z,0.40
2022-08-12T23:15:14.511Z,0.70
2022-08-12T23:17:42.566Z,0.75
2022-08-12T23:20:11.090Z,0.90
2022-08-12T23:22:40.200Z,1.60
2022-08-12T23:25:21.020Z,0.75
2022-08-12T23:28:29.298Z,0.60
2022-08-12T23:31:04.070Z,0.77
2022-08-12T23:34:00.107Z,1.33
2022-08-12T23:36:31.778Z,1.05
2022-08-12T23:40:15.530Z,0.80
2022-08-12T23:42:17.678Z,0.60
2022-08-12T23:44:43.289Z,1.25
2022-08-12T23:47:12.675Z,1.15
2022-08-12T23:49:57.572Z,0.65
2022-08-12T23:52:28.464Z,1.48
2022-08-12T23:55:23.935Z,1.67
2022-08-12T23:58:18.378Z,1.25
